sensor_id;sensor_type;location;lat;lon;timestamp;pressure;altitude;pressure_sealevel;temperature;humidity
16580;BME280;8402;51.466;6.806;2023-03-24T00:00:27;99777.63;;;13.87;98.98
16580;BME280;8402;51.466;6.806;2023-03-24T00:02:59;99777.19;;;13.85;99.56
16580;BME280;8402;51.466;6.806;2023-03-24T00:05:30;99779.22;;;13.88;99.01
16580;BME280;8402;51.466;6.806;2023-03-24T00:08:00;99780.78;;;13.89;99.04
16580;BME280;8402;51.466;6.806;2023-03-24T00:10:30;99775.06;;;13.94;98.59
16580;BME280;8402;51.466;6.806;2023-03-24T00:29:53;99746.63;;;13.76;100.00
16580;BME280;8402;51.466;6.806;2023-03-24T00:32:25;99739.59;;;13.75;100.00
16580;BME280;8402;51.466;6.806;2023-03-24T00:34:56;99734.88;;;13.72;100.00
16580;BME280;8402;51.466;6.806;2023-03-24T00:37:26;99730.13;;;13.69;100.00
16580;BME280;8402;51.466;6.806;2023-03-24T00:39:56;99726.56;;;13.65;100.00
16580;BME280;8402;51.466;6.806;2023-03-24T00:42:26;99726.13;;;13.63;100.00
16580;BME280;8402;51.466;6.806;2023-03-24T00:44:59;99714.84;;;13.64;100.00
16580;BME280;8402;51.466;6.806;2023-03-24T00:47:30;99715.22;;;13.63;100.00
16580;BME280;8402;51.466;6.806;2023-03-24T00:50:03;99707.47;;;13.65;100.00
16580;BME280;8402;51.466;6.806;2023-03-24T00:52:33;99705.88;;;13.64;100.00
16580;BME280;8402;51.466;6.806;2023-03-24T00:55:11;99702.03;;;13.65;100.00
16580;BME280;8402;51.466;6.806;2023-03-24T00:57:44;99701.56;;;13.63;100.00
16580;BME280;8402;51.466;6.806;2023-03-24T01:00:21;99698.84;;;13.63;100.00
16580;BME280;8402;51.466;6.806;2023-03-24T01:02:53;99687.94;;;13.63;100.00
16580;BME280;8402;51.466;6.806;2023-03-24T01:05:26;99683.66;;;13.62;100.00
16580;BME280;8402;51.466;6.806;2023-03-24T01:07:57;99694.13;;;13.60;100.00
16580;BME280;8402;51.466;6.806;2023-03-24T01:10:31;99687.09;;;13.59;100.00
16580;BME280;8402;51.466;6.806;2023-03-24T01:13:01;99689.06;;;13.58;100.00
16580;BME280;8402;51.466;6.806;2023-03-24T01:15:34;99687.09;;;13.59;100.00
16580;BME280;8402;51.466;6.806;2023-03-24T01:18:05;99677.34;;;13.58;100.00
16580;BME280;8402;51.466;6.806;2023-03-24T01:20:35;99670.75;;;13.59;100.00
16580;BME280;8402;51.466;6.806;2023-03-24T01:23:06;99670.31;;;13.57;100.00
16580;BME280;8402;51.466;6.806;2023-03-24T01:25:37;99670.31;;;13.57;100.00
16580;BME280;8402;51.466;6.806;2023-03-24T01:28:08;99678.06;;;13.55;100.00
16580;BME280;8402;51.466;6.806;2023-03-24T01:30:41;99664.44;;;13.55;100.00
16580;BME280;8402;51.466;6.806;2023-03-24T01:33:12;99664.84;;;13.57;100.00
16580;BME280;8402;51.466;6.806;2023-03-24T01:35:42;99655.09;;;13.56;100.00
16580;BME280;8402;51.466;6.806;2023-03-24T01:38:13;99644.19;;;13.56;100.00
16580;BME280;8402;51.466;6.806;2023-03-24T01:40:45;99637.97;;;13.55;100.00
16580;BME280;8402;51.466;6.806;2023-03-24T02:58:03;99523.94;;;13.80;100.00
16580;BME280;8402;51.466;6.806;2023-03-24T03:00:38;99523.19;;;13.83;100.00
16580;BME280;8402;51.466;6.806;2023-03-24T03:03:14;99520.88;;;13.85;100.00
16580;BME280;8402;51.466;6.806;2023-03-24T03:05:48;99514.72;;;13.88;100.00
16580;BME280;8402;51.466;6.806;2023-03-24T03:08:21;99511.56;;;13.86;100.00
16580;BME280;8402;51.466;6.806;2023-03-24T03:10:53;99520.16;;;13.88;100.00
16580;BME280;8402;51.466;6.806;2023-03-24T03:13:31;99508.47;;;13.88;100.00
16580;BME280;8402;51.466;6.806;2023-03-24T03:16:06;99508.47;;;13.88;100.00
16580;BME280;8402;51.466;6.806;2023-03-24T03:18:41;99512.41;;;13.90;100.00
16580;BME280;8402;51.466;6.806;2023-03-24T03:21:18;99506.22;;;13.93;100.00
16580;BME280;8402;51.466;6.806;2023-03-24T03:23:52;99504.63;;;13.92;100.00
16580;BME280;8402;51.466;6.806;2023-03-24T03:26:25;99508.50;;;13.91;100.00
16580;BME280;8402;51.466;6.806;2023-03-24T03:29:04;99504.63;;;13.92;100.00
16580;BME280;8402;51.466;6.806;2023-03-24T03:31:40;99510.16;;;13.96;100.00
16580;BME280;8402;51.466;6.806;2023-03-24T03:34:16;99509.38;;;13.95;100.00
16580;BME280;8402;51.466;6.806;2023-03-24T03:36:54;99507.06;;;13.97;100.00
16580;BME280;8402;51.466;6.806;2023-03-24T03:39:28;99510.19;;;13.99;100.00
16580;BME280;8402;51.466;6.806;2023-03-24T03:41:59;99519.66;;;14.05;100.00
16580;BME280;8402;51.466;6.806;2023-03-24T03:44:32;99508.00;;;14.09;100.00
16580;BME280;8402;51.466;6.806;2023-03-24T03:47:03;99508.84;;;14.13;100.00
16580;BME280;8402;51.466;6.806;2023-03-24T03:49:33;99506.56;;;14.15;100.00
16580;BME280;8402;51.466;6.806;2023-03-24T03:52:03;99511.66;;;14.20;100.00
16580;BME280;8402;51.466;6.806;2023-03-24T03:54:35;99519.06;;;14.19;100.00
16580;BME280;8402;51.466;6.806;2023-03-24T03:57:06;99526.88;;;14.21;100.00
16580;BME280;8402;51.466;6.806;2023-03-24T03:59:39;99533.94;;;14.22;100.00
16580;BME280;8402;51.466;6.806;2023-03-24T04:02:20;99529.25;;;14.22;100.00
16580;BME280;8402;51.466;6.806;2023-03-24T04:05:22;99549.50;;;14.21;100.00
16580;BME280;8402;51.466;6.806;2023-03-24T04:11:13;99546.41;;;14.23;100.00
16580;BME280;8402;51.466;6.806;2023-03-24T04:13:59;99557.75;;;14.25;100.00
16580;BME280;8402;51.466;6.806;2023-03-24T04:16:42;99565.53;;;14.23;100.00
16580;BME280;8402;51.466;6.806;2023-03-24T04:19:29;99567.38;;;14.19;100.00
16580;BME280;8402;51.466;6.806;2023-03-24T04:22:17;99565.81;;;14.18;100.00
16580;BME280;8402;51.466;6.806;2023-03-24T04:24:53;99563.09;;;14.18;100.00
16580;BME280;8402;51.466;6.806;2023-03-24T04:27:30;99584.84;;;14.14;100.00
16580;BME280;8402;51.466;6.806;2023-03-24T04:30:10;99596.56;;;14.15;100.00
16580;BME280;8402;51.466;6.806;2023-03-24T04:32:48;99581.34;;;14.14;100.00
16580;BME280;8402;51.466;6.806;2023-03-24T04:35:24;99576.63;;;14.11;100.00
16580;BME280;8402;51.466;6.806;2023-03-24T04:38:03;99580.50;;;14.10;100.00
16580;BME280;8402;51.466;6.806;2023-03-24T04:40:35;99604.28;;;14.09;100.00
16580;BME280;8402;51.466;6.806;2023-03-24T04:43:09;99605.06;;;14.10;100.00
16580;BME280;8402;51.466;6.806;2023-03-24T04:45:43;99605.34;;;14.04;100.00
16580;BME280;8402;51.466;6.806;2023-03-24T04:48:19;99619.41;;;14.07;100.00
16580;BME280;8402;51.466;6.806;2023-03-24T04:50:53;99631.09;;;14.07;100.00
16580;BME280;8402;51.466;6.806;2023-03-24T04:53:23;99644.41;;;14.09;100.00
16580;BME280;8402;51.466;6.806;2023-03-24T04:55:59;99641.59;;;14.05;100.00
16580;BME280;8402;51.466;6.806;2023-03-24T04:58:32;99664.28;;;14.09;100.00
16580;BME280;8402;51.466;6.806;2023-03-24T05:01:03;99670.09;;;14.08;100.00
16580;BME280;8402;51.466;6.806;2023-03-24T05:03:37;99675.13;;;14.05;100.00
16580;BME280;8402;51.466;6.806;2023-03-24T05:06:09;99680.88;;;14.00;100.00
16580;BME280;8402;51.466;6.806;2023-03-24T05:08:39;99686.09;;;13.86;99.72
16580;BME280;8402;51.466;6.806;2023-03-24T05:11:09;99702.56;;;13.93;99.40
16580;BME280;8402;51.466;6.806;2023-03-24T05:13:38;99710.38;;;13.95;99.60
16580;BME280;8402;51.466;6.806;2023-03-24T05:16:10;99710.75;;;13.93;99.05
16580;BME280;8402;51.466;6.806;2023-03-24T05:18:42;99711.88;;;13.92;98.09
16580;BME280;8402;51.466;6.806;2023-03-24T05:21:12;99722.78;;;13.92;98.54
16580;BME280;8402;51.466;6.806;2023-03-24T05:23:42;99733.78;;;13.96;98.74
16580;BME280;8402;51.466;6.806;2023-03-24T05:26:12;99752.09;;;13.95;97.41
16580;BME280;8402;51.466;6.806;2023-03-24T05:28:42;99747.28;;;13.89;97.10
16580;BME280;8402;51.466;6.806;2023-03-24T05:31:12;99760.81;;;13.85;95.67
16580;BME280;8402;51.466;6.806;2023-03-24T05:33:45;99768.53;;;13.80;94.52
16580;BME280;8402;51.466;6.806;2023-03-24T05:36:15;99778.56;;;13.75;94.81
16580;BME280;8402;51.466;6.806;2023-03-24T05:38:45;99786.97;;;13.67;94.24
16580;BME280;8402;51.466;6.806;2023-03-24T05:41:15;99801.59;;;13.59;93.65
16580;BME280;8402;51.466;6.806;2023-03-24T05:43:45;99804.59;;;13.54;93.75
16580;BME280;8402;51.466;6.806;2023-03-24T05:46:15;99810.47;;;13.56;93.63
16580;BME280;8402;51.466;6.806;2023-03-24T05:48:47;99812.41;;;13.55;93.03
16580;BME280;8402;51.466;6.806;2023-03-24T05:51:17;99812.41;;;13.55;93.06
16580;BME280;8402;51.466;6.806;2023-03-24T05:53:47;99815.38;;;13.50;92.57
16580;BME280;8402;51.466;6.806;2023-03-24T05:56:18;99813.75;;;13.45;92.71
16580;BME280;8402;51.466;6.806;2023-03-24T05:58:47;99834.78;;;13.29;91.55
16580;BME280;8402;51.466;6.806;2023-03-24T06:01:18;99835.06;;;13.24;90.61
16580;BME280;8402;51.466;6.806;2023-03-24T06:03:53;99856.66;;;13.17;90.61
16580;BME280;8402;51.466;6.806;2023-03-24T06:06:23;99849.63;;;13.16;91.28
16580;BME280;8402;51.466;6.806;2023-03-24T06:08:54;99856.53;;;13.13;90.66
16580;BME280;8402;51.466;6.806;2023-03-24T06:11:24;99856.84;;;13.08;89.78
16580;BME280;8402;51.466;6.806;2023-03-24T06:13:54;99852.25;;;12.97;89.27
16580;BME280;8402;51.466;6.806;2023-03-24T06:16:26;99860.69;;;12.91;89.74
16580;BME280;8402;51.466;6.806;2023-03-24T06:19:02;99859.81;;;12.87;89.27
16580;BME280;8402;51.466;6.806;2023-03-24T06:21:32;99863.69;;;12.86;90.12
16580;BME280;8402;51.466;6.806;2023-03-24T06:24:03;99855.06;;;12.84;89.89
16580;BME280;8402;51.466;6.806;2023-03-24T06:26:33;99864.19;;;12.76;89.11
16580;BME280;8402;51.466;6.806;2023-03-24T06:29:03;99861.47;;;12.76;89.77
16580;BME280;8402;51.466;6.806;2023-03-24T06:31:33;99866.47;;;12.74;89.39
16580;BME280;8402;51.466;6.806;2023-03-24T06:34:06;99867.25;;;12.75;88.69
16580;BME280;8402;51.466;6.806;2023-03-24T06:36:35;99873.31;;;12.68;89.01
16580;BME280;8402;51.466;6.806;2023-03-24T06:39:06;99876.56;;;12.74;89.23
16580;BME280;8402;51.466;6.806;2023-03-24T06:41:36;99881.78;;;12.79;89.61
16580;BME280;8402;51.466;6.806;2023-03-24T06:44:06;99885.59;;;12.78;89.54
16580;BME280;8402;51.466;6.806;2023-03-24T06:46:36;99893.78;;;12.78;89.73
16580;BME280;8402;51.466;6.806;2023-03-24T06:49:09;99896.84;;;12.76;89.59
16580;BME280;8402;51.466;6.806;2023-03-24T06:51:39;99891.59;;;12.83;89.63
16580;BME280;8402;51.466;6.806;2023-03-24T06:54:08;99891.97;;;12.98;89.70
16580;BME280;8402;51.466;6.806;2023-03-24T06:56:38;99893.22;;;13.16;89.54
16580;BME280;8402;51.466;6.806;2023-03-24T06:59:08;99897.47;;;13.29;88.57
16580;BME280;8402;51.466;6.806;2023-03-24T07:01:39;99886.91;;;13.43;88.45
16580;BME280;8402;51.466;6.806;2023-03-24T07:04:11;99885.63;;;13.57;86.33
16580;BME280;8402;51.466;6.806;2023-03-24T07:06:41;99896.84;;;13.71;86.58
16580;BME280;8402;51.466;6.806;2023-03-24T07:09:31;99893.06;;;13.75;85.45
16580;BME280;8402;51.466;6.806;2023-03-24T07:12:01;99889.47;;;13.71;85.25
16580;BME280;8402;51.466;6.806;2023-03-24T07:14:31;99899.41;;;13.80;84.46
16580;BME280;8402;51.466;6.806;2023-03-24T07:17:01;99897.31;;;13.92;84.41
16580;BME280;8402;51.466;6.806;2023-03-24T07:19:34;99891.06;;;14.08;83.94
16580;BME280;8402;51.466;6.806;2023-03-24T07:22:03;99894.84;;;14.22;83.71
16580;BME280;8402;51.466;6.806;2023-03-24T07:24:34;99905.28;;;14.36;83.12
16580;BME280;8402;51.466;6.806;2023-03-24T07:27:04;99899.00;;;14.36;81.61
16580;BME280;8402;51.466;6.806;2023-03-24T07:29:35;99906.38;;;14.51;82.09
16580;BME280;8402;51.466;6.806;2023-03-24T07:32:05;99900.25;;;14.57;80.73
16580;BME280;8402;51.466;6.806;2023-03-24T07:34:38;99908.41;;;14.77;79.41
16580;BME280;8402;51.466;6.806;2023-03-24T07:37:09;99908.63;;;14.88;80.06
16580;BME280;8402;51.466;6.806;2023-03-24T07:39:39;99925.06;;;14.91;78.93
16580;BME280;8402;51.466;6.806;2023-03-24T07:42:09;99928.41;;;15.04;79.29
16580;BME280;8402;51.466;6.806;2023-03-24T07:44:39;99918.50;;;15.19;78.84
16580;BME280;8402;51.466;6.806;2023-03-24T07:47:09;99912.63;;;15.39;79.46
16580;BME280;8402;51.466;6.806;2023-03-24T07:49:42;99910.41;;;15.49;76.94
16580;BME280;8402;51.466;6.806;2023-03-24T07:52:12;99916.66;;;15.72;77.68
16580;BME280;8402;51.466;6.806;2023-03-24T07:54:42;99914.59;;;15.92;77.24
16580;BME280;8402;51.466;6.806;2023-03-24T07:57:12;99926.69;;;15.91;73.74
16580;BME280;8402;51.466;6.806;2023-03-24T07:59:42;99925.28;;;16.01;75.20
16580;BME280;8402;51.466;6.806;2023-03-24T08:02:16;99934.00;;;16.10;74.22
16580;BME280;8402;51.466;6.806;2023-03-24T08:04:49;99942.59;;;16.08;71.71
16580;BME280;8402;51.466;6.806;2023-03-24T08:07:19;99942.16;;;16.06;73.20
16580;BME280;8402;51.466;6.806;2023-03-24T08:09:50;99944.28;;;16.20;74.17
16580;BME280;8402;51.466;6.806;2023-03-24T08:12:20;99957.78;;;16.36;73.51
16580;BME280;8402;51.466;6.806;2023-03-24T08:14:50;99953.22;;;16.43;73.94
16580;BME280;8402;51.466;6.806;2023-03-24T08:17:23;99952.38;;;16.39;73.91
16580;BME280;8402;51.466;6.806;2023-03-24T08:19:55;99956.69;;;16.40;73.96
16580;BME280;8402;51.466;6.806;2023-03-24T08:22:27;99963.25;;;16.36;74.53
16580;BME280;8402;51.466;6.806;2023-03-24T08:24:58;99970.75;;;16.09;73.78
16580;BME280;8402;51.466;6.806;2023-03-24T08:27:27;99958.59;;;15.80;72.33
16580;BME280;8402;51.466;6.806;2023-03-24T08:29:57;99965.41;;;15.66;73.95
16580;BME280;8402;51.466;6.806;2023-03-24T08:32:27;99965.41;;;15.66;75.07
16580;BME280;8402;51.466;6.806;2023-03-24T08:35:00;99971.41;;;15.76;74.74
16580;BME280;8402;51.466;6.806;2023-03-24T08:37:30;99965.41;;;15.93;74.66
16580;BME280;8402;51.466;6.806;2023-03-24T08:40:01;99970.97;;;16.00;75.17
16580;BME280;8402;51.466;6.806;2023-03-24T08:42:38;99964.56;;;16.15;75.07
16580;BME280;8402;51.466;6.806;2023-03-24T08:45:10;99966.75;;;16.33;74.02
16580;BME280;8402;51.466;6.806;2023-03-24T08:47:40;99971.91;;;16.38;73.45
16580;BME280;8402;51.466;6.806;2023-03-24T08:50:13;99974.31;;;16.43;71.70
16580;BME280;8402;51.466;6.806;2023-03-24T08:52:43;99971.00;;;16.60;73.44
16580;BME280;8402;51.466;6.806;2023-03-24T08:55:15;99967.50;;;16.60;70.90
16580;BME280;8402;51.466;6.806;2023-03-24T08:57:45;99948.78;;;16.65;71.21
16580;BME280;8402;51.466;6.806;2023-03-24T09:00:17;99961.50;;;16.81;71.77
16580;BME280;8402;51.466;6.806;2023-03-24T09:02:49;99967.22;;;17.02;71.64
16580;BME280;8402;51.466;6.806;2023-03-24T09:05:23;99979.75;;;17.06;71.49
16580;BME280;8402;51.466;6.806;2023-03-24T09:08:10;99979.50;;;16.82;71.39
16580;BME280;8402;51.466;6.806;2023-03-24T09:10:43;99979.97;;;16.87;72.49
16580;BME280;8402;51.466;6.806;2023-03-24T09:13:14;99979.69;;;16.99;72.24
16580;BME280;8402;51.466;6.806;2023-03-24T09:15:45;99985.81;;;16.86;72.33
16580;BME280;8402;51.466;6.806;2023-03-24T09:18:17;99989.44;;;16.63;69.97
16580;BME280;8402;51.466;6.806;2023-03-24T09:20:50;99997.25;;;16.61;71.00
16580;BME280;8402;51.466;6.806;2023-03-24T09:23:21;99991.63;;;16.50;71.86
16580;BME280;8402;51.466;6.806;2023-03-24T09:25:52;99990.00;;;16.46;72.84
16580;BME280;8402;51.466;6.806;2023-03-24T09:28:23;100005.59;;;16.42;72.68
16580;BME280;8402;51.466;6.806;2023-03-24T09:30:56;99993.06;;;16.41;72.70
16580;BME280;8402;51.466;6.806;2023-03-24T09:33:28;99996.56;;;16.38;73.08
16580;BME280;8402;51.466;6.806;2023-03-24T09:36:04;99995.28;;;16.32;70.99
16580;BME280;8402;51.466;6.806;2023-03-24T09:38:34;99996.88;;;16.33;72.38
16580;BME280;8402;51.466;6.806;2023-03-24T09:41:13;100002.03;;;16.11;71.29
16580;BME280;8402;51.466;6.806;2023-03-24T09:43:49;100002.03;;;16.11;70.43
16580;BME280;8402;51.466;6.806;2023-03-24T09:46:25;99999.31;;;16.11;71.99
16580;BME280;8402;51.466;6.806;2023-03-24T09:48:57;100002.03;;;16.11;72.50
16580;BME280;8402;51.466;6.806;2023-03-24T09:51:33;100008.38;;;16.15;71.72
16580;BME280;8402;51.466;6.806;2023-03-24T09:54:12;100005.41;;;16.01;68.92
16580;BME280;8402;51.466;6.806;2023-03-24T09:56:45;100006.63;;;16.04;70.95
16580;BME280;8402;51.466;6.806;2023-03-24T09:59:19;100010.91;;;16.01;71.32
16580;BME280;8402;51.466;6.806;2023-03-24T10:01:50;100020.69;;;16.02;71.63
16580;BME280;8402;51.466;6.806;2023-03-24T10:04:32;100022.78;;;16.12;71.43
16580;BME280;8402;51.466;6.806;2023-03-24T10:07:08;100023.28;;;16.21;70.63
16580;BME280;8402;51.466;6.806;2023-03-24T10:09:43;100020.25;;;16.27;68.16
16580;BME280;8402;51.466;6.806;2023-03-24T10:12:23;100021.28;;;16.45;69.98
16580;BME280;8402;51.466;6.806;2023-03-24T10:15:10;100026.81;;;16.48;68.52
16580;BME280;8402;51.466;6.806;2023-03-24T10:18:09;100040.78;;;16.40;67.89
16580;BME280;8402;51.466;6.806;2023-03-24T10:20:48;100047.03;;;16.14;67.78
16580;BME280;8402;51.466;6.806;2023-03-24T10:23:30;100041.81;;;16.05;67.17
16580;BME280;8402;51.466;6.806;2023-03-24T10:26:09;100044.16;;;16.03;67.42
16580;BME280;8402;51.466;6.806;2023-03-24T10:28:49;100057.16;;;16.10;66.56
16580;BME280;8402;51.466;6.806;2023-03-24T10:31:26;100043.16;;;16.15;67.57
16580;BME280;8402;51.466;6.806;2023-03-24T10:33:58;100049.19;;;16.28;68.37
16580;BME280;8402;51.466;6.806;2023-03-24T10:36:29;100041.28;;;16.49;67.53
16580;BME280;8402;51.466;6.806;2023-03-24T10:39:02;100040.94;;;16.81;67.62
16580;BME280;8402;51.466;6.806;2023-03-24T10:41:48;100042.31;;;16.97;66.16
16580;BME280;8402;51.466;6.806;2023-03-24T10:44:18;100049.44;;;17.02;64.82
16580;BME280;8402;51.466;6.806;2023-03-24T10:46:52;100047.88;;;17.04;63.90
16580;BME280;8402;51.466;6.806;2023-03-24T10:49:23;100037.38;;;17.10;63.79
16580;BME280;8402;51.466;6.806;2023-03-24T10:51:59;100052.72;;;17.18;64.58
16580;BME280;8402;51.466;6.806;2023-03-24T10:54:32;100057.50;;;17.25;64.02
16580;BME280;8402;51.466;6.806;2023-03-24T10:57:03;100056.66;;;17.17;64.84
16580;BME280;8402;51.466;6.806;2023-03-24T10:59:51;100059.63;;;17.05;64.75
16580;BME280;8402;51.466;6.806;2023-03-24T11:02:24;100060.47;;;17.09;66.06
16580;BME280;8402;51.466;6.806;2023-03-24T11:04:56;100058.19;;;17.15;65.72
16580;BME280;8402;51.466;6.806;2023-03-24T11:07:31;100058.97;;;17.15;66.16
16580;BME280;8402;51.466;6.806;2023-03-24T11:10:13;100058.91;;;17.08;64.48
16580;BME280;8402;51.466;6.806;2023-03-24T11:12:58;100039.59;;;17.34;65.75
16580;BME280;8402;51.466;6.806;2023-03-24T11:15:31;100049.91;;;17.48;64.64
16580;BME280;8402;51.466;6.806;2023-03-24T11:18:12;100041.34;;;17.53;62.71
16580;BME280;8402;51.466;6.806;2023-03-24T11:20:44;100049.13;;;17.48;62.84
16580;BME280;8402;51.466;6.806;2023-03-24T11:23:18;100045.91;;;17.39;62.26
16580;BME280;8402;51.466;6.806;2023-03-24T11:26:01;100053.72;;;17.37;62.04
16580;BME280;8402;51.466;6.806;2023-03-24T11:28:36;100048.97;;;17.33;61.38
16580;BME280;8402;51.466;6.806;2023-03-24T11:31:11;100051.88;;;17.48;62.41
16580;BME280;8402;51.466;6.806;2023-03-24T11:33:49;100045.28;;;17.56;63.14
16580;BME280;8402;51.466;6.806;2023-03-24T11:36:38;100041.28;;;17.50;62.28
16580;BME280;8402;51.466;6.806;2023-03-24T11:39:19;100038.94;;;17.48;61.48
16580;BME280;8402;51.466;6.806;2023-03-24T11:42:00;100056.78;;;17.31;61.52
16580;BME280;8402;51.466;6.806;2023-03-24T11:44:41;100057.53;;;17.28;62.34
16580;BME280;8402;51.466;6.806;2023-03-24T11:47:17;100068.06;;;17.23;61.91
16580;BME280;8402;51.466;6.806;2023-03-24T11:49:56;100059.75;;;17.16;61.56
16580;BME280;8402;51.466;6.806;2023-03-24T11:52:33;100057.44;;;17.18;62.55
16580;BME280;8402;51.466;6.806;2023-03-24T11:55:12;100049.66;;;17.23;60.43
16580;BME280;8402;51.466;6.806;2023-03-24T11:57:51;100052.03;;;17.28;61.31
16580;BME280;8402;51.466;6.806;2023-03-24T12:00:29;100049.88;;;17.45;60.52
16580;BME280;8402;51.466;6.806;2023-03-24T12:03:34;100057.66;;;17.39;61.19
16580;BME280;8402;51.466;6.806;2023-03-24T12:06:20;100056.09;;;17.42;59.63
16580;BME280;8402;51.466;6.806;2023-03-24T12:09:03;100060.06;;;17.44;60.81
16580;BME280;8402;51.466;6.806;2023-03-24T12:11:49;100054.47;;;17.33;61.13
16580;BME280;8402;51.466;6.806;2023-03-24T12:14:31;100045.13;;;17.38;61.61
16580;BME280;8402;51.466;6.806;2023-03-24T12:17:10;100042.41;;;17.42;61.46
16580;BME280;8402;51.466;6.806;2023-03-24T12:20:07;100042.31;;;17.34;60.39
16580;BME280;8402;51.466;6.806;2023-03-24T12:22:49;100041.22;;;17.43;61.73
16580;BME280;8402;51.466;6.806;2023-03-24T12:25:31;100035.75;;;17.43;60.37
16580;BME280;8402;51.466;6.806;2023-03-24T12:28:22;100028.66;;;17.38;61.03
16580;BME280;8402;51.466;6.806;2023-03-24T12:31:10;100039.25;;;17.40;60.22
16580;BME280;8402;51.466;6.806;2023-03-24T12:33:50;100024.03;;;17.46;60.39
16580;BME280;8402;51.466;6.806;2023-03-24T12:36:30;100023.25;;;17.49;62.25
16580;BME280;8402;51.466;6.806;2023-03-24T12:39:08;100013.94;;;17.57;62.09
16580;BME280;8402;51.466;6.806;2023-03-24T12:41:49;100023.44;;;17.67;61.50
16580;BME280;8402;51.466;6.806;2023-03-24T12:44:33;100012.34;;;17.56;59.16
16580;BME280;8402;51.466;6.806;2023-03-24T12:47:22;100006.06;;;17.52;59.85
16580;BME280;8402;51.466;6.806;2023-03-24T12:50:12;100005.94;;;17.38;58.31
16580;BME280;8402;51.466;6.806;2023-03-24T12:52:56;100010.19;;;17.31;58.24
16580;BME280;8402;51.466;6.806;2023-03-24T12:55:42;100004.97;;;17.19;57.72
16580;BME280;8402;51.466;6.806;2023-03-24T12:58:19;100008.16;;;17.25;59.42
16580;BME280;8402;51.466;6.806;2023-03-24T13:00:58;100000.47;;;17.41;59.66
16580;BME280;8402;51.466;6.806;2023-03-24T13:03:37;99981.81;;;17.57;60.06
16580;BME280;8402;51.466;6.806;2023-03-24T13:06:16;100005.28;;;17.51;58.48
16580;BME280;8402;51.466;6.806;2023-03-24T13:09:04;100003.66;;;17.47;59.38
16580;BME280;8402;51.466;6.806;2023-03-24T13:11:44;99998.88;;;17.37;58.51
16580;BME280;8402;51.466;6.806;2023-03-24T13:14:21;99999.56;;;17.26;58.99
16580;BME280;8402;51.466;6.806;2023-03-24T13:16:58;100022.97;;;17.20;58.74
16580;BME280;8402;51.466;6.806;2023-03-24T13:19:35;100011.84;;;17.02;59.15
16580;BME280;8402;51.466;6.806;2023-03-24T13:22:11;99998.47;;;16.97;60.53
16580;BME280;8402;51.466;6.806;2023-03-24T13:24:45;100000.88;;;17.02;61.65
16580;BME280;8402;51.466;6.806;2023-03-24T13:27:20;100020.00;;;16.95;61.06
16580;BME280;8402;51.466;6.806;2023-03-24T13:30:05;100034.41;;;16.89;60.88
16580;BME280;8402;51.466;6.806;2023-03-24T13:32:44;100062.03;;;16.76;64.84
16580;BME280;8402;51.466;6.806;2023-03-24T13:35:28;100034.72;;;16.57;68.18
16580;BME280;8402;51.466;6.806;2023-03-24T13:38:03;100015.38;;;16.69;69.53
16580;BME280;8402;51.466;6.806;2023-03-24T13:40:37;100017.09;;;16.85;69.73
16580;BME280;8402;51.466;6.806;2023-03-24T13:43:11;100019.50;;;16.86;69.89
16580;BME280;8402;51.466;6.806;2023-03-24T13:45:44;100013.72;;;16.95;70.64
16580;BME280;8402;51.466;6.806;2023-03-24T13:48:25;100011.00;;;16.98;69.90
16580;BME280;8402;51.466;6.806;2023-03-24T13:51:00;100010.03;;;17.17;70.20
16580;BME280;8402;51.466;6.806;2023-03-24T13:53:36;99999.47;;;17.19;69.50
16580;BME280;8402;51.466;6.806;2023-03-24T13:56:19;100002.63;;;17.21;69.11
16580;BME280;8402;51.466;6.806;2023-03-24T14:02:15;99996.97;;;17.03;67.58
16580;BME280;8402;51.466;6.806;2023-03-24T14:04:47;100001.69;;;17.06;68.54
16580;BME280;8402;51.466;6.806;2023-03-24T14:07:45;100037.91;;;16.89;69.58
16580;BME280;8402;51.466;6.806;2023-03-24T14:10:41;100051.13;;;16.54;69.68
16580;BME280;8402;51.466;6.806;2023-03-24T14:13:23;100062.56;;;16.33;69.47
16580;BME280;8402;51.466;6.806;2023-03-24T14:16:33;100054.66;;;16.28;71.25
16580;BME280;8402;51.466;6.806;2023-03-24T14:19:25;100056.25;;;16.29;72.17
16580;BME280;8402;51.466;6.806;2023-03-24T14:22:02;100027.97;;;16.47;72.22
16580;BME280;8402;51.466;6.806;2023-03-24T14:24:39;100020.00;;;16.65;72.73
16580;BME280;8402;51.466;6.806;2023-03-24T14:27:30;100020.53;;;16.74;73.25
16580;BME280;8402;51.466;6.806;2023-03-24T14:30:10;100009.31;;;16.87;72.29
16580;BME280;8402;51.466;6.806;2023-03-24T14:32:44;100011.00;;;16.98;72.60
16580;BME280;8402;51.466;6.806;2023-03-24T14:35:24;100014.03;;;16.90;72.11
16580;BME280;8402;51.466;6.806;2023-03-24T14:37:56;100018.66;;;16.82;71.63
16580;BME280;8402;51.466;6.806;2023-03-24T14:40:33;100023.13;;;16.67;72.36
16580;BME280;8402;51.466;6.806;2023-03-24T14:43:16;100038.59;;;16.52;72.93
16580;BME280;8402;51.466;6.806;2023-03-24T14:45:55;100052.56;;;16.44;71.99
16580;BME280;8402;51.466;6.806;2023-03-24T14:48:34;100040.63;;;16.29;73.11
16580;BME280;8402;51.466;6.806;2023-03-24T14:51:25;100033.72;;;16.39;74.75
16580;BME280;8402;51.466;6.806;2023-03-24T14:54:04;100029.22;;;16.54;75.09
16580;BME280;8402;51.466;6.806;2023-03-24T14:56:40;100022.97;;;16.53;75.74
16580;BME280;8402;51.466;6.806;2023-03-24T14:59:20;100026.06;;;16.51;75.66
16580;BME280;8402;51.466;6.806;2023-03-24T15:02:00;100038.13;;;16.47;75.66
16580;BME280;8402;51.466;6.806;2023-03-24T15:04:33;100030.22;;;16.42;75.72
16580;BME280;8402;51.466;6.806;2023-03-24T15:07:05;100030.97;;;16.39;76.03
16580;BME280;8402;51.466;6.806;2023-03-24T15:09:36;100036.72;;;16.30;74.92
16580;BME280;8402;51.466;6.806;2023-03-24T15:12:09;100023.34;;;16.25;75.21
16580;BME280;8402;51.466;6.806;2023-03-24T15:14:40;100021.78;;;16.24;75.39
16580;BME280;8402;51.466;6.806;2023-03-24T15:17:18;100023.28;;;16.21;75.41
16580;BME280;8402;51.466;6.806;2023-03-24T15:19:50;100025.31;;;16.24;75.92
16580;BME280;8402;51.466;6.806;2023-03-24T15:22:21;100018.97;;;16.20;75.37
16580;BME280;8402;51.466;6.806;2023-03-24T15:24:51;100013.88;;;16.19;75.57